createdAt,value
2023-02-24T00:01:28.584Z,51.13
2023-02-24T00:03:58.319Z,60.07
2023-02-24T00:06:36.914Z,56.70
2023-02-24T00:09:16.765Z,57.90
2023-02-24T00:11:46.303Z,54.07
2023-02-24T00:14:16.199Z,57.20
2023-02-24T00:16:44.495Z,42.00
2023-02-24T00:19:17.805Z,37.90
2023-02-24T00:21:45.151Z,36.57
2023-02-24T00:24:13.412Z,34.47
2023-02-24T00:26:40.929Z,25.93
2023-02-24T00:29:10.379Z,20.30
2023-02-24T00:31:42.045Z,19.70
2023-02-24T00:34:12.668Z,22.47
2023-02-24T00:36:39.923Z,18.67
2023-02-24T00:39:09.497Z,22.77
2023-02-24T00:41:41.855Z,19.17
2023-02-24T00:44:11.111Z,18.83
2023-02-24T00:46:44.675Z,18.83
2023-02-24T00:49:17.197Z,25.33
2023-02-24T00:51:47.147Z,25.53
2023-02-24T00:54:15.118Z,23.67
2023-02-24T00:56:47.441Z,18.07
2023-02-24T00:59:17.046Z,26.50
2023-02-24T01:01:49.765Z,22.83
2023-02-24T01:04:19.068Z,23.10
2023-02-24T01:06:48.243Z,21.07
2023-02-24T01:09:17.904Z,27.10
2023-02-24T01:12:06.031Z,21.47
2023-02-24T01:14:35.187Z,24.77
2023-02-24T01:17:03.410Z,22.43
2023-02-24T01:19:32.071Z,28.43
2023-02-24T01:22:01.084Z,35.77
2023-02-24T01:24:39.559Z,22.77
2023-02-24T01:27:06.837Z,18.77
2023-02-24T01:29:39.420Z,29.93
2023-02-24T01:32:07.864Z,23.13
2023-02-24T01:34:35.129Z,24.87
2023-02-24T01:37:02.104Z,25.73
2023-02-24T01:39:28.837Z,22.67
2023-02-24T01:41:55.634Z,23.30
2023-02-24T01:44:25.137Z,22.53
2023-02-24T01:46:53.281Z,26.13
2023-02-24T01:49:25.330Z,27.43
2023-02-24T01:52:24.429Z,25.93
2023-02-24T01:55:10.676Z,26.13
2023-02-24T01:57:38.856Z,31.53
2023-02-24T02:00:37.938Z,34.43
2023-02-24T02:03:13.623Z,32.93
2023-02-24T02:05:41.367Z,27.53
2023-02-24T02:08:09.524Z,23.97
2023-02-24T02:10:39.495Z,20.63
2023-02-24T02:13:06.648Z,33.70
2023-02-24T02:15:37.482Z,26.23
2023-02-24T02:18:36.159Z,34.57
2023-02-24T02:21:25.201Z,28.83
2023-02-24T02:24:13.149Z,28.87
2023-02-24T02:27:04.407Z,24.93
2023-02-24T02:29:52.079Z,18.60
2023-02-24T02:33:02.266Z,31.77
2023-02-24T02:35:49.410Z,27.60
2023-02-24T02:38:27.844Z,28.77
2023-02-24T02:41:19.594Z,29.23
2023-02-24T02:43:48.955Z,31.20
2023-02-24T02:46:34.758Z,41.77
2023-02-24T02:49:42.395Z,32.50
2023-02-24T02:52:43.477Z,42.00
2023-02-24T02:55:18.837Z,40.70
2023-02-24T02:57:49.662Z,30.30
2023-02-24T03:00:42.033Z,37.27
2023-02-24T03:03:15.133Z,39.03
2023-02-24T03:05:48.089Z,35.57
2023-02-24T03:08:18.936Z,40.30
2023-02-24T03:10:51.035Z,41.23
2023-02-24T03:13:22.386Z,39.97
2023-02-24T03:15:51.889Z,41.50
2023-02-24T03:18:35.290Z,42.40
2023-02-24T03:21:23.446Z,39.60
2023-02-24T03:23:51.730Z,47.17
2023-02-24T03:26:28.311Z,39.97
2023-02-24T03:29:24.128Z,42.17
2023-02-24T03:31:54.312Z,45.27
2023-02-24T03:34:37.589Z,46.33
2023-02-24T03:37:05.077Z,46.07
2023-02-24T03:39:32.702Z,46.43
2023-02-24T03:42:09.892Z,41.67
2023-02-24T03:44:36.733Z,36.87
2023-02-24T03:47:03.720Z,48.87
2023-02-24T03:49:31.219Z,35.07
2023-02-24T03:52:21.502Z,45.40
2023-02-24T03:55:19.673Z,37.00
2023-02-24T03:58:13.320Z,38.03
2023-02-24T04:00:58.365Z,39.23
2023-02-24T04:03:34.062Z,34.60
2023-02-24T04:06:28.111Z,32.93
2023-02-24T04:09:33.361Z,29.50
2023-02-24T04:12:14.706Z,24.13
2023-02-24T04:15:01.035Z,35.93
2023-02-24T04:17:42.956Z,27.63
2023-02-24T04:20:18.186Z,21.77
2023-02-24T04:22:49.740Z,29.63
2023-02-24T04:25:19.682Z,34.90
2023-02-24T04:27:47.865Z,25.20
2023-02-24T04:30:14.934Z,21.20
2023-02-24T04:32:42.888Z,28.23
2023-02-24T04:35:13.299Z,24.53
2023-02-24T04:37:40.156Z,30.47
2023-02-24T04:40:13.208Z,43.37
2023-02-24T04:42:46.617Z,21.20
2023-02-24T04:45:19.102Z,26.53
2023-02-24T04:47:49.575Z,27.93
2023-02-24T04:50:23.073Z,36.97
2023-02-24T04:53:09.388Z,29.83
2023-02-24T04:55:42.398Z,23.63
2023-02-24T04:58:19.087Z,26.43
2023-02-24T05:00:52.835Z,25.63
2023-02-24T05:03:21.501Z,31.33
2023-02-24T05:05:51.983Z,30.90
2023-02-24T05:08:19.569Z,33.73
2023-02-24T05:10:47.115Z,34.37
2023-02-24T05:13:25.430Z,25.17
2023-02-24T05:15:52.146Z,24.13
2023-02-24T05:18:20.264Z,18.93
2023-02-24T05:21:09.655Z,17.33
2023-02-24T05:23:44.428Z,33.33
2023-02-24T05:26:17.051Z,17.80
2023-02-24T05:28:49.198Z,30.47
2023-02-24T05:31:23.843Z,16.93
2023-02-24T05:34:00.131Z,31.13
2023-02-24T05:36:29.767Z,22.13
2023-02-24T05:39:06.919Z,28.50
2023-02-24T05:41:36.164Z,26.33
2023-02-24T05:44:10.882Z,29.70
2023-02-24T05:46:40.888Z,21.40
2023-02-24T05:49:35.439Z,21.07
2023-02-24T05:52:08.737Z,17.33
2023-02-24T05:54:39.012Z,25.30
2023-02-24T05:57:15.322Z,18.70
2023-02-24T05:59:44.600Z,22.67
2023-02-24T06:02:14.285Z,13.37
2023-02-24T06:04:54.211Z,16.33
2023-02-24T06:07:28.473Z,15.43
2023-02-24T06:09:58.989Z,15.93
2023-02-24T06:12:31.242Z,28.33
2023-02-24T06:14:58.434Z,19.97
2023-02-24T06:17:25.660Z,23.63
2023-02-24T06:19:54.029Z,21.40
2023-02-24T06:22:23.285Z,25.43
2023-02-24T06:24:50.222Z,18.63
2023-02-24T06:27:19.298Z,22.67
2023-02-24T06:29:49.952Z,17.20
2023-02-24T06:32:23.849Z,18.07
2023-02-24T06:34:52.071Z,18.03
2023-02-24T06:37:19.013Z,17.13
2023-02-24T06:39:46.300Z,22.77
2023-02-24T06:42:13.493Z,16.13
2023-02-24T06:44:41.237Z,9.40
2023-02-24T06:47:10.876Z,13.90
2023-02-24T06:49:37.728Z,20.60
2023-02-24T06:52:05.881Z,21.67
2023-02-24T06:54:35.989Z,14.37
2023-02-24T06:57:03.838Z,8.83
2023-02-24T06:59:30.717Z,18.10
2023-02-24T07:01:59.860Z,11.50
2023-02-24T07:04:28.868Z,13.23
2023-02-24T07:07:02.907Z,13.20
2023-02-24T07:09:30.795Z,18.63
2023-02-24T07:11:58.850Z,9.70
2023-02-24T07:14:29.236Z,13.57
2023-02-24T07:16:58.043Z,8.13
2023-02-24T07:19:29.104Z,12.53
2023-02-24T07:22:00.303Z,11.17
2023-02-24T07:24:40.605Z,12.87
2023-02-24T07:27:10.802Z,15.57
2023-02-24T07:29:38.358Z,13.83
2023-02-24T07:32:08.714Z,16.20
2023-02-24T07:34:40.088Z,22.57
2023-02-24T07:37:08.349Z,19.73
2023-02-24T07:39:40.058Z,9.97
2023-02-24T07:42:08.941Z,16.47
2023-02-24T07:44:35.918Z,23.03
2023-02-24T07:47:07.755Z,16.07
2023-02-24T07:49:35.324Z,15.50
2023-02-24T07:52:02.140Z,15.17
2023-02-24T07:54:30.312Z,22.00
2023-02-24T07:56:59.375Z,24.27
2023-02-24T07:59:32.500Z,26.20
2023-02-24T08:02:04.530Z,20.37
2023-02-24T08:04:33.076Z,15.33
2023-02-24T08:07:03.360Z,12.93
2023-02-24T08:09:44.872Z,15.50
2023-02-24T08:12:21.485Z,20.87
2023-02-24T08:14:51.914Z,17.20
2023-02-24T08:17:20.870Z,17.27
2023-02-24T08:19:49.610Z,15.23
2023-02-24T08:22:20.445Z,27.53
2023-02-24T08:24:50.831Z,12.90
2023-02-24T08:27:20.260Z,18.87
2023-02-24T08:30:00.961Z,8.60
2023-02-24T08:32:37.178Z,14.37
2023-02-24T08:35:14.707Z,18.73
2023-02-24T08:37:50.007Z,11.13
2023-02-24T08:40:34.164Z,11.83
2023-02-24T08:43:16.222Z,18.23
2023-02-24T08:45:52.057Z,34.90
2023-02-24T08:48:36.973Z,14.53
2023-02-24T08:51:24.006Z,15.10
2023-02-24T08:53:53.473Z,15.00
2023-02-24T08:56:24.628Z,21.60
2023-02-24T08:59:05.572Z,12.53
2023-02-24T09:01:38.540Z,15.53
2023-02-24T09:04:12.350Z,16.83
2023-02-24T09:06:44.222Z,13.30
2023-02-24T09:09:23.002Z,19.83
2023-02-24T09:11:56.746Z,13.93
2023-02-24T09:14:29.306Z,15.03
2023-02-24T09:17:06.514Z,28.30
2023-02-24T09:19:52.309Z,17.73
2023-02-24T09:22:57.334Z,20.00
2023-02-24T09:25:26.056Z,15.00
2023-02-24T09:28:09.901Z,13.10
2023-02-24T09:30:55.288Z,20.00
2023-02-24T09:33:23.783Z,26.00
2023-02-24T09:36:11.104Z,15.53
2023-02-24T09:38:59.003Z,16.20
2023-02-24T09:41:54.153Z,18.70
2023-02-24T09:44:24.504Z,13.40
2023-02-24T09:47:31.005Z,14.60
2023-02-24T09:50:04.438Z,12.17
2023-02-24T09:53:06.391Z,16.07
2023-02-24T09:56:00.102Z,18.43
2023-02-24T09:58:49.169Z,18.43
2023-02-24T10:01:43.013Z,12.23
2023-02-24T10:04:27.384Z,13.53
2023-02-24T10:07:04.842Z,11.10
2023-02-24T10:09:41.026Z,8.07
2023-02-24T10:12:07.719Z,15.63
2023-02-24T10:14:44.674Z,8.13
2023-02-24T10:17:24.210Z,8.53
2023-02-24T10:19:59.838Z,7.10
2023-02-24T10:22:39.784Z,10.03
2023-02-24T10:25:36.423Z,7.43
2023-02-24T10:28:36.128Z,12.33
2023-02-24T10:31:10.848Z,10.00
2023-02-24T10:33:45.255Z,7.50
2023-02-24T10:36:17.557Z,19.03
2023-02-24T10:38:50.746Z,13.17
2023-02-24T10:41:17.850Z,10.57
2023-02-24T10:43:56.260Z,25.63
2023-02-24T10:46:42.041Z,17.80
2023-02-24T10:49:16.214Z,13.17
2023-02-24T10:51:51.262Z,10.87
2023-02-24T10:54:54.920Z,16.73
2023-02-24T10:57:38.315Z,13.67
2023-02-24T11:00:41.883Z,12.37
2023-02-24T11:03:22.074Z,13.87
2023-02-24T11:06:12.003Z,5.90
2023-02-24T11:08:47.908Z,11.93
2023-02-24T11:11:53.664Z,7.83
2023-02-24T11:14:39.325Z,8.13
2023-02-24T11:17:27.101Z,14.50
2023-02-24T11:20:01.456Z,8.10
2023-02-24T11:22:35.595Z,17.03
2023-02-24T11:25:33.961Z,17.37
2023-02-24T11:28:01.900Z,10.80
2023-02-24T11:30:34.782Z,12.20
2023-02-24T11:33:10.639Z,8.53
2023-02-24T11:35:48.390Z,10.23
2023-02-24T11:38:27.750Z,11.43
2023-02-24T11:41:27.282Z,18.63
2023-02-24T11:44:17.817Z,15.17
2023-02-24T11:46:50.567Z,11.60
2023-02-24T11:49:42.379Z,10.90
2023-02-24T11:52:27.522Z,19.40
2023-02-24T11:54:58.014Z,12.37
2023-02-24T11:57:37.591Z,12.90
2023-02-24T12:00:20.094Z,12.03
2023-02-24T12:02:53.421Z,7.93
2023-02-24T12:05:36.766Z,10.47
2023-02-24T12:08:13.510Z,7.90
2023-02-24T12:10:47.376Z,8.90
2023-02-24T12:13:28.097Z,8.70
2023-02-24T12:16:14.702Z,7.73
2023-02-24T12:18:52.350Z,8.77
2023-02-24T12:21:30.503Z,10.63
2023-02-24T12:23:58.833Z,8.70
2023-02-24T12:26:55.710Z,12.60
2023-02-24T12:30:06.320Z,13.77
2023-02-24T12:32:54.338Z,14.93
2023-02-24T12:35:24.725Z,14.37
2023-02-24T12:38:09.828Z,7.20
2023-02-24T12:40:57.283Z,12.67
2023-02-24T12:43:30.106Z,13.50
2023-02-24T12:46:27.350Z,11.83
2023-02-24T12:48:56.982Z,10.97
2023-02-24T12:51:35.470Z,14.20
2023-02-24T12:54:21.225Z,22.43
2023-02-24T12:57:13.721Z,9.97
2023-02-24T12:59:41.863Z,7.67
2023-02-24T13:02:14.568Z,13.53
2023-02-24T13:05:31.051Z,10.10
2023-02-24T13:08:37.827Z,8.40
2023-02-24T13:11:38.460Z,9.20
2023-02-24T13:14:32.852Z,7.20
2023-02-24T13:17:11.876Z,12.30
2023-02-24T13:19:40.304Z,11.90
2023-02-24T13:22:12.835Z,6.90
2023-02-24T13:25:08.395Z,18.90
2023-02-24T13:27:42.217Z,10.00
2023-02-24T13:30:12.090Z,13.20
2023-02-24T13:32:46.205Z,11.20
2023-02-24T13:35:15.718Z,29.80
2023-02-24T13:37:47.960Z,10.63
2023-02-24T13:40:23.460Z,15.13
2023-02-24T13:42:56.414Z,8.37
2023-02-24T13:45:29.245Z,7.60
2023-02-24T13:48:23.132Z,15.50
2023-02-24T13:51:24.696Z,14.27
2023-02-24T13:54:16.100Z,16.13
2023-02-24T13:57:15.454Z,27.73
2023-02-24T14:00:12.092Z,16.33
2023-02-24T14:02:44.244Z,10.30
2023-02-24T14:05:27.273Z,24.67
2023-02-24T14:07:55.220Z,11.50
2023-02-24T14:10:28.426Z,19.90
2023-02-24T14:13:17.645Z,11.33
2023-02-24T14:15:46.913Z,11.20
2023-02-24T14:18:20.877Z,10.13
2023-02-24T14:20:47.812Z,9.87
2023-02-24T14:23:34.317Z,13.83
2023-02-24T14:26:11.988Z,11.63
2023-02-24T14:28:40.091Z,11.93
2023-02-24T14:31:14.392Z,11.83
2023-02-24T14:33:44.972Z,9.80
2023-02-24T14:36:18.417Z,11.67
2023-02-24T14:38:46.034Z,12.50
2023-02-24T14:41:21.009Z,8.80
2023-02-24T14:43:48.152Z,8.87
2023-02-24T14:46:16.544Z,11.00
2023-02-24T14:48:44.523Z,9.03
2023-02-24T14:51:22.085Z,12.47
2023-02-24T14:53:57.038Z,7.40
2023-02-24T14:56:31.964Z,9.03
2023-02-24T14:59:12.400Z,12.30
2023-02-24T15:01:43.620Z,9.23
2023-02-24T15:04:30.545Z,17.07
2023-02-24T15:06:57.590Z,12.70
2023-02-24T15:09:34.459Z,7.63
2023-02-24T15:12:11.009Z,8.13
2023-02-24T15:14:37.994Z,7.23
2023-02-24T15:17:15.238Z,10.80
2023-02-24T15:19:46.380Z,16.93
2023-02-24T15:22:29.805Z,9.97
2023-02-24T15:25:09.957Z,8.23
2023-02-24T15:27:36.703Z,11.03
2023-02-24T15:30:08.248Z,10.30
2023-02-24T15:32:38.162Z,10.23
2023-02-24T15:35:06.271Z,8.17
2023-02-24T15:37:42.333Z,9.60
2023-02-24T15:40:28.765Z,11.97
2023-02-24T15:43:07.507Z,16.30
2023-02-24T15:45:36.365Z,15.27
2023-02-24T15:48:18.503Z,6.87
2023-02-24T15:50:45.292Z,19.90
2023-02-24T15:53:13.084Z,15.00
2023-02-24T15:55:41.935Z,14.20
2023-02-24T15:58:17.575Z,11.70
2023-02-24T16:00:45.618Z,10.50
2023-02-24T16:03:12.891Z,12.97
2023-02-24T16:05:39.782Z,11.80
2023-02-24T16:08:12.951Z,12.23
2023-02-24T16:10:40.823Z,15.13
2023-02-24T16:13:15.435Z,10.07
2023-02-24T16:15:45.096Z,8.20
2023-02-24T16:18:22.086Z,7.43
2023-02-24T16:20:56.982Z,6.87
2023-02-24T16:23:26.363Z,7.13
2023-02-24T16:25:59.225Z,6.90
2023-02-24T16:28:26.678Z,13.00
2023-02-24T16:30:53.485Z,12.23
2023-02-24T16:33:22.749Z,7.33
2023-02-24T16:35:53.600Z,14.60
2023-02-24T16:38:21.499Z,15.87
2023-02-24T16:40:49.908Z,7.60
2023-02-24T16:43:16.730Z,12.07
2023-02-24T16:45:45.147Z,12.23
2023-02-24T16:48:26.603Z,7.43
2023-02-24T16:50:53.914Z,9.70
2023-02-24T16:53:22.919Z,7.73
2023-02-24T16:55:50.489Z,9.67
2023-02-24T16:58:17.537Z,8.40
2023-02-24T17:00:46.725Z,11.57
2023-02-24T17:03:26.186Z,12.03
2023-02-24T17:05:53.735Z,9.97
2023-02-24T17:08:21.349Z,9.30
2023-02-24T17:10:49.247Z,13.97
2023-02-24T17:13:19.551Z,6.33
2023-02-24T17:15:47.029Z,9.90
2023-02-24T17:18:13.721Z,10.80
2023-02-24T17:20:42.491Z,12.97
2023-02-24T17:23:11.388Z,11.50
2023-02-24T17:25:38.521Z,8.03
2023-02-24T17:28:06.489Z,9.87
2023-02-24T17:30:35.089Z,9.97
2023-02-24T17:33:02.419Z,12.00
2023-02-24T17:35:29.412Z,12.10
2023-02-24T17:37:56.257Z,8.37
2023-02-24T17:40:23.450Z,9.23
2023-02-24T17:42:50.146Z,14.30
2023-02-24T17:45:16.980Z,12.70
2023-02-24T17:47:43.821Z,12.60
2023-02-24T17:50:12.499Z,10.90
2023-02-24T17:52:39.490Z,12.10
2023-02-24T17:55:07.433Z,12.33
2023-02-24T17:57:34.878Z,12.83
2023-02-24T18:00:01.906Z,13.00
2023-02-24T18:02:28.681Z,9.53
2023-02-24T18:04:55.592Z,12.30
2023-02-24T18:07:22.391Z,19.57
2023-02-24T18:09:49.079Z,13.60
2023-02-24T18:12:18.616Z,15.63
2023-02-24T18:14:45.938Z,20.63
2023-02-24T18:17:12.600Z,13.40
2023-02-24T18:19:39.383Z,18.20
2023-02-24T18:22:06.328Z,12.80
2023-02-24T18:24:34.470Z,15.53
2023-02-24T18:27:04.599Z,12.73
2023-02-24T18:29:31.381Z,9.90
2023-02-24T18:31:58.458Z,11.77
2023-02-24T18:34:25.384Z,13.10
2023-02-24T18:36:52.212Z,7.77
2023-02-24T18:39:18.946Z,11.40
2023-02-24T18:41:45.700Z,25.57
2023-02-24T18:44:13.108Z,13.10
2023-02-24T18:46:39.955Z,20.63
2023-02-24T18:49:08.915Z,23.40
2023-02-24T18:51:36.432Z,25.23
2023-02-24T18:54:03.819Z,18.23
2023-02-24T18:56:32.888Z,18.70
2023-02-24T18:59:00.935Z,17.20
2023-02-24T19:01:36.325Z,18.20
2023-02-24T19:04:04.343Z,12.27
2023-02-24T19:06:32.349Z,20.43
2023-02-24T19:09:07.313Z,14.27
2023-02-24T19:11:34.400Z,11.40
2023-02-24T19:14:01.858Z,25.67
2023-02-24T19:16:28.993Z,13.20
2023-02-24T19:18:57.613Z,14.03
2023-02-24T19:21:26.272Z,7.37
2023-02-24T19:23:53.484Z,5.50
2023-02-24T19:26:22.839Z,5.37
2023-02-24T19:28:49.849Z,6.07
2023-02-24T19:31:19.731Z,6.10
2023-02-24T19:33:50.996Z,9.73
2023-02-24T19:36:17.672Z,3.70
2023-02-24T19:38:44.452Z,4.73
2023-02-24T19:41:11.205Z,6.47
2023-02-24T19:43:37.964Z,5.63
2023-02-24T19:46:09.988Z,5.27
2023-02-24T19:48:37.019Z,4.27
2023-02-24T19:51:12.565Z,6.47
2023-02-24T19:53:40.042Z,6.27
2023-02-24T19:56:07.477Z,5.30
2023-02-24T19:58:34.525Z,4.33
2023-02-24T20:01:09.471Z,3.90
2023-02-24T20:03:38.049Z,4.40
2023-02-24T20:06:05.677Z,5.97
2023-02-24T20:08:35.073Z,7.00
2023-02-24T20:11:03.791Z,12.60
2023-02-24T20:13:31.180Z,9.87
2023-02-24T20:16:09.290Z,4.63
2023-02-24T20:18:36.168Z,5.33
2023-02-24T20:21:03.166Z,15.73
2023-02-24T20:23:30.284Z,6.43
2023-02-24T20:25:57.103Z,7.07
2023-02-24T20:28:24.395Z,24.13
2023-02-24T20:30:51.506Z,5.83
2023-02-24T20:33:19.351Z,6.67
2023-02-24T20:35:46.432Z,7.93
2023-02-24T20:38:13.704Z,11.60
2023-02-24T20:40:40.845Z,14.37
2023-02-24T20:43:09.346Z,4.77
2023-02-24T20:45:37.913Z,9.03
2023-02-24T20:48:05.202Z,12.83
2023-02-24T20:50:31.976Z,12.93
2023-02-24T20:52:58.683Z,6.13
2023-02-24T20:55:26.984Z,10.00
2023-02-24T20:57:53.651Z,11.63
2023-02-24T21:00:20.712Z,15.17
2023-02-24T21:02:47.394Z,10.50
2023-02-24T21:05:24.055Z,9.30
2023-02-24T21:07:51.138Z,8.27
2023-02-24T21:10:19.526Z,7.30
2023-02-24T21:12:47.258Z,5.13
2023-02-24T21:15:14.616Z,8.23
2023-02-24T21:17:41.571Z,6.63
2023-02-24T21:20:11.218Z,8.70
2023-02-24T21:22:41.528Z,13.80
2023-02-24T21:25:10.750Z,11.90
2023-02-24T21:27:37.946Z,17.53
2023-02-24T21:30:08.674Z,12.40
2023-02-24T21:32:35.760Z,8.73
2023-02-24T21:35:02.898Z,11.90
2023-02-24T21:37:29.955Z,6.73
2023-02-24T21:39:56.792Z,8.93
2023-02-24T21:42:23.545Z,16.60
2023-02-24T21:44:55.364Z,7.47
2023-02-24T21:47:22.116Z,14.23
2023-02-24T21:49:49.647Z,12.00
2023-02-24T21:52:16.326Z,10.77
2023-02-24T21:54:43.082Z,9.83
2023-02-24T21:57:09.736Z,7.27
2023-02-24T21:59:36.572Z,9.07
2023-02-24T22:02:03.436Z,7.80
2023-02-24T22:04:30.311Z,10.07
2023-02-24T22:06:57.044Z,8.30
2023-02-24T22:09:23.811Z,11.37
2023-02-24T22:11:50.587Z,15.87
2023-02-24T22:14:17.885Z,11.70
2023-02-24T22:16:45.079Z,8.93
2023-02-24T22:19:12.263Z,10.93
2023-02-24T22:21:42.062Z,7.90
2023-02-24T22:24:12.545Z,14.93
2023-02-24T22:26:40.125Z,12.70
2023-02-24T22:29:07.534Z,17.23
2023-02-24T22:31:36.701Z,11.97
2023-02-24T22:34:04.346Z,13.83
2023-02-24T22:36:33.695Z,13.13
2023-02-24T22:39:01.482Z,11.27
2023-02-24T22:41:34.007Z,15.03
2023-02-24T22:44:04.113Z,17.57
2023-02-24T22:46:33.426Z,18.27
2023-02-24T22:49:00.373Z,12.63
2023-02-24T22:51:27.282Z,21.50
2023-02-24T22:53:54.357Z,15.13
2023-02-24T22:56:25.339Z,16.47
2023-02-24T22:58:52.412Z,16.43
2023-02-24T23:01:22.140Z,10.20
2023-02-24T23:03:49.396Z,10.27
2023-02-24T23:06:18.590Z,13.23
2023-02-24T23:08:47.051Z,13.30
2023-02-24T23:11:15.653Z,18.43
2023-02-24T23:13:44.713Z,15.30
2023-02-24T23:16:14.494Z,14.27
2023-02-24T23:18:41.788Z,9.63
2023-02-24T23:21:10.018Z,17.53
2023-02-24T23:23:37.588Z,17.80
2023-02-24T23:26:05.363Z,15.93
2023-02-24T23:28:32.220Z,15.33
2023-02-24T23:30:59.411Z,18.90
2023-02-24T23:33:26.499Z,18.13
2023-02-24T23:35:53.811Z,10.53
2023-02-24T23:38:20.585Z,18.00
2023-02-24T23:40:50.571Z,13.40
2023-02-24T23:43:17.954Z,10.33
2023-02-24T23:45:45.191Z,12.73
2023-02-24T23:48:13.990Z,20.60
2023-02-24T23:50:42.711Z,20.70
2023-02-24T23:53:10.003Z,10.47
2023-02-24T23:55:40.745Z,12.93
2023-02-24T23:58:07.681Z,13.70
